Thursday, July 19, 2018, 1:49 AM EDT
Back to Local

KFVE, Northern Aroostook Regional

Location: Saint Agatha, ME, United States Lat: 47.283
Local Time: 1:49 AM EDT ( 5:49 GMT) Lon: -68.3
Time Zone: US/Eastern Elev: 987 ft

Show me the last for .
Show Decoded

2018-07-19 00:53 METAR KFVE 190453Z AUTO 29003KT 10SM CLR 12/07 A2994 RMK AO2 SLP135 T01220072
                 402220117 =
2018-07-18 23:53 METAR KFVE 190353Z AUTO 24005KT 10SM CLR 12/08 A2994 RMK AO2 SLP137 T01170078 =
2018-07-18 22:53 METAR KFVE 190253Z AUTO 30005KT 10SM CLR 14/07 A2993 RMK AO2 SLP133 T01440067
                 51010 =
2018-07-18 21:53 METAR KFVE 190153Z AUTO 31007KT 10SM CLR 16/07 A2993 RMK AO2 SLP132 T01560072 =
2018-07-18 20:53 METAR KFVE 190053Z AUTO 32004KT 10SM CLR 16/07 A2992 RMK AO2 SLP129 T01560072 =
2018-07-18 19:53 METAR KFVE 182353Z AUTO 32006KT 10SM CLR 18/07 A2990 RMK AO2 SLP123 T01780072
                 10217 20178 53014 =
2018-07-18 18:53 METAR KFVE 182253Z AUTO 32009G17KT 10SM CLR 19/07 A2989 RMK AO2 SLP117 T01940067
                 =
2018-07-18 17:53 METAR KFVE 182153Z AUTO 32010KT 10SM CLR 21/07 A2987 RMK AO2 SLP111 T02060067 =
2018-07-18 16:53 METAR KFVE 182053Z AUTO 32017G23KT 10SM FEW055 21/07 A2986 RMK AO2 SLP107
                 T02110067 53009 =
2018-07-18 15:53 METAR KFVE 181953Z AUTO 33013G21KT 10SM CLR 22/07 A2985 RMK AO2 SLP102 T02170067
                 =
2018-07-18 14:53 METAR KFVE 181853Z AUTO 30016G22KT 280V340 10SM CLR 22/05 A2984 RMK AO2 SLP099
                 T02170050 =
2018-07-18 13:53 METAR KFVE 181753Z AUTO 31013G19KT 9SM CLR 22/05 A2983 RMK AO2 SLP096 T02170050
                 10222 20156 53002 =
2018-07-18 12:53 METAR KFVE 181653Z AUTO 31009G22KT 10SM CLR 21/06 A2982 RMK AO2 SLP093 T02110061
                 =
2018-07-18 11:53 METAR KFVE 181553Z AUTO 33011G17KT 10SM CLR 20/07 A2982 RMK AO2 SLP092 T02000072
                 =
2018-07-18 10:53 METAR KFVE 181453Z AUTO 34012G18KT 10SM FEW035 19/08 A2982 RMK AO2 SLP095
                 T01940078 51012 =
2018-07-18 09:53 METAR KFVE 181353Z AUTO 34014G20KT 10SM FEW025 18/09 A2982 RMK AO2 SLP092
                 T01780094 =
2018-07-18 08:53 METAR KFVE 181253Z AUTO 33014G22KT 10SM FEW018 FEW050 16/10 A2981 RMK AO2 SLP090
                 T01610100 =
2018-07-18 07:53 METAR KFVE 181153Z AUTO 33015G22KT 10SM SCT012 16/11 A2979 RMK AO2 SLP083 70031
                 T01560111 10189 20150 51017 =
2018-07-18 07:44 METAR KFVE 181144Z AUTO 34012KT 10SM SCT012 16/11 A2979 RMK AO2 T01560111 =
2018-07-18 07:13 METAR KFVE 181113Z AUTO 33014KT 10SM BKN012 15/12 A2978 RMK AO2 T01500117 =
2018-07-18 06:53 METAR KFVE 181053Z AUTO 32015G21KT 10SM SCT012 15/12 A2978 RMK AO2 SLP078
                 T01500117 =
2018-07-18 05:53 METAR KFVE 180953Z AUTO 33012KT 10SM SCT012 15/12 A2976 RMK AO2 SLP073 T01500122
                 =
2018-07-18 05:42 METAR KFVE 180942Z AUTO 34011KT 10SM FEW010 SCT014 15/12 A2975 RMK AO2 T01500122
                 =
2018-07-18 04:53 METAR KFVE 180853Z AUTO 33012KT 10SM OVC013 16/13 A2974 RMK AO2 SLP065 T01610133
                 53015 =
2018-07-18 04:19 METAR KFVE 180819Z AUTO 32015G20KT 10SM BKN012 17/14 A2973 RMK AO2 T01670139 =
2018-07-18 04:03 METAR KFVE 180803Z AUTO 32011KT 10SM BKN009 17/14 A2972 RMK AO2 CIG 006V014
                 T01670144 =
2018-07-18 03:53 METAR KFVE 180753Z AUTO 33013KT 10SM OVC010 17/14 A2971 RMK AO2 CIG 006V014
                 SLP056 T01720144 =
2018-07-18 03:36 METAR KFVE 180736Z AUTO 33012KT 10SM BKN010 18/15 A2971 RMK AO2 CIG 007V012
                 T01780150 =
2018-07-18 02:53 METAR KFVE 180653Z AUTO 32009KT 10SM OVC110 18/16 A2971 RMK AO2 SLP055 T01780156
                 =
2018-07-18 01:53 METAR KFVE 180553Z AUTO 33008KT 10SM OVC075 19/16 A2969 RMK AO2 SLP048 60009
                 T01890156 10222 20189 53005 =

Support USWX by starting your Amazon purchase here.